Time;durP1;ratioP1;P1;durP2;ratioP2;P2;SDS_P1;SDS_P2;PMS_P1;PMS_P2;Temp;Humidity;BMP_temperature;BMP_pressure;BME280_temperature;BME280_humidity;BME280_pressure;Samples;Min_cycle;Max_cycle;Signal;HPM_P1;HPM_P2
2022/06/17 00:00:18;;;;;;;2.40;2.20;;;;;;;14.36;68.38;101964.63;5078595;28;20024;-82
2022/06/17 00:02:43;;;;;;;2.50;2.30;;;;;;;14.34;68.36;101967.28;5078750;28;20030;-82
2022/06/17 00:05:09;;;;;;;3.05;2.50;;;;;;;14.32;67.39;101963.78;5078951;28;20039;-82
2022/06/17 00:07:35;;;;;;;2.63;2.42;;;;;;;14.31;67.43;101972.56;5078810;28;20384;-82
2022/06/17 00:10:01;;;;;;;4.30;2.20;;;;;;;14.27;67.44;101976.09;5078526;28;20027;-82
2022/06/17 00:12:26;;;;;;;2.47;2.28;;;;;;;14.27;67.04;101964.72;5078489;28;20034;-82
2022/06/17 00:17:36;;;;;;;4.43;2.17;;;;;;;14.27;67.37;101955.06;5098228;28;20038;-82
2022/06/17 00:20:05;;;;;;;2.50;2.30;;;;;;;14.24;68.24;101949.88;5078359;28;20481;-82
2022/06/17 00:22:30;;;;;;;2.55;2.35;;;;;;;14.24;67.48;101959.53;5078732;28;20404;-82
2022/06/17 00:24:55;;;;;;;2.47;2.28;;;;;;;14.22;67.67;101959.53;5078420;28;20031;-82
2022/06/17 00:27:21;;;;;;;2.42;2.10;;;;;;;14.21;66.51;101955.16;5078258;28;20030;-82
2022/06/17 00:29:46;;;;;;;2.35;2.05;;;;;;;14.20;66.65;101958.66;5095159;28;20019;-82
2022/06/17 00:32:12;;;;;;;2.60;2.40;;;;;;;14.19;66.40;101957.81;5078180;28;20050;-82
2022/06/17 00:34:37;;;;;;;2.38;2.17;;;;;;;14.17;66.44;101958.72;5095242;28;20106;-82
2022/06/17 00:37:06;;;;;;;2.30;2.10;;;;;;;14.17;66.68;101964.81;5095032;28;20023;-81
2022/06/17 00:39:34;;;;;;;4.18;3.00;;;;;;;14.16;67.51;101956.97;5078471;28;20016;-82
2022/06/17 00:42:05;;;;;;;4.30;2.88;;;;;;;14.16;67.57;101949.09;5077958;28;20495;-82
2022/06/17 00:44:59;;;;;;;2.90;2.58;;;;;;;14.14;67.66;101958.75;5078022;28;20524;-82
2022/06/17 00:48:20;;;;;;;2.97;2.78;;;;;;;14.11;67.36;101959.66;5077896;28;20059;-82
2022/06/17 00:50:50;;;;;;;2.45;2.33;;;;;;;14.12;67.57;101963.16;4997122;28;20153;-82
2022/06/17 00:53:20;;;;;;;4.68;2.33;;;;;;;14.09;68.11;101965.81;4997321;28;20036;-82
2022/06/17 00:55:54;;;;;;;2.78;2.50;;;;;;;14.06;68.36;101968.44;5065462;28;20114;-82
2022/06/17 00:58:26;;;;;;;3.10;2.70;;;;;;;14.03;67.75;101962.34;5077561;28;20477;-82
2022/06/17 01:00:54;;;;;;;3.28;2.97;;;;;;;14.02;67.58;101960.59;5077498;28;20288;-82
2022/06/17 01:03:24;;;;;;;4.43;2.88;;;;;;;14.03;68.18;101964.97;5077837;28;20020;-82
2022/06/17 01:06:04;;;;;;;3.10;2.80;;;;;;;14.02;67.30;101965.88;5077879;28;20024;-81
2022/06/17 01:11:24;;;;;;;2.78;2.58;;;;;;;13.98;69.21;101972.03;5097632;28;20030;-82
2022/06/17 01:13:49;;;;;;;2.80;2.60;;;;;;;13.99;68.40;101980.81;5077674;28;20548;-82
2022/06/17 01:16:17;;;;;;;4.32;3.00;;;;;;;13.98;68.68;101989.56;5094942;28;20059;-82
2022/06/17 01:18:43;;;;;;;3.22;3.00;;;;;;;13.97;69.02;101987.81;5077438;28;20034;-82
2022/06/17 01:21:15;;;;;;;4.07;3.03;;;;;;;13.94;69.11;102004.47;5077458;28;20032;-82
2022/06/17 01:23:41;;;;;;;3.38;2.85;;;;;;;13.93;69.22;101991.34;5077932;28;20054;-82
2022/06/17 01:26:06;;;;;;;3.75;3.33;;;;;;;13.92;67.86;101995.75;5078021;28;20069;-82
2022/06/17 01:28:32;;;;;;;3.30;3.10;;;;;;;13.90;68.89;101992.25;5077366;28;20024;-82
2022/06/17 01:30:58;;;;;;;3.33;3.10;;;;;;;13.89;69.14;102000.16;5077560;28;20076;-82
2022/06/17 01:33:26;;;;;;;3.42;3.22;;;;;;;13.88;68.65;101994.03;5077506;28;20180;-82
2022/06/17 01:36:05;;;;;;;3.13;2.80;;;;;;;13.87;67.88;102000.16;5094395;28;20472;-82
2022/06/17 01:38:32;;;;;;;3.05;2.85;;;;;;;13.85;68.12;101999.28;5077463;28;20268;-81
2022/06/17 01:40:59;;;;;;;3.70;3.42;;;;;;;13.83;67.88;102001.94;5077234;28;20023;-82
2022/06/17 01:43:37;;;;;;;3.22;3.03;;;;;;;13.83;67.78;101993.19;5077566;28;20518;-82
2022/06/17 01:46:06;;;;;;;3.20;3.00;;;;;;;13.84;68.29;101997.59;5077522;28;20023;-81
2022/06/17 01:48:37;;;;;;;4.45;3.60;;;;;;;13.86;68.28;101995.78;5077111;28;20042;-81
2022/06/17 01:51:05;;;;;;;3.47;3.00;;;;;;;13.87;68.21;102000.16;5077322;28;20020;-82
2022/06/17 01:53:33;;;;;;;4.82;3.40;;;;;;;13.89;66.97;101994.91;5077040;28;20476;-82
2022/06/17 01:56:05;;;;;;;4.18;3.53;;;;;;;13.88;67.34;101998.41;5077238;28;20035;-82
2022/06/17 01:58:37;;;;;;;4.60;3.55;;;;;;;13.88;67.62;101998.41;5094397;28;20384;-81
2022/06/17 02:01:05;;;;;;;3.78;3.58;;;;;;;13.89;66.66;102010.66;5077014;28;20023;-82
2022/06/17 02:03:34;;;;;;;3.95;3.42;;;;;;;13.86;67.61;102001.03;5077400;28;20031;-82
2022/06/17 02:06:17;;;;;;;5.03;3.92;;;;;;;13.85;67.50;102001.94;5077368;28;20077;-82
2022/06/17 02:08:43;;;;;;;4.03;3.67;;;;;;;13.85;67.68;102007.19;5077044;28;20062;-82
2022/06/17 02:11:08;;;;;;;5.10;3.92;;;;;;;13.85;66.50;102015.06;5094151;28;20110;-82
2022/06/17 02:13:34;;;;;;;5.15;4.18;;;;;;;13.82;67.96;102009.84;5078765;28;20391;-82
2022/06/17 02:16:01;;;;;;;4.00;3.80;;;;;;;13.82;67.31;102012.47;5080724;28;20030;-82
2022/06/17 02:18:27;;;;;;;4.40;4.10;;;;;;;13.81;67.29;102008.09;5080471;28;20110;-81
2022/06/17 02:20:55;;;;;;;4.60;4.18;;;;;;;13.80;66.78;102009.00;5079967;28;20461;-82
2022/06/17 02:23:22;;;;;;;4.20;3.80;;;;;;;13.81;67.14;102008.09;5080603;28;20028;-82
2022/06/17 02:25:49;;;;;;;4.40;3.90;;;;;;;13.81;67.40;102008.09;5080414;28;20027;-82
2022/06/17 02:28:18;;;;;;;4.18;3.85;;;;;;;13.80;66.91;102006.38;5080459;28;20484;-82
2022/06/17 02:30:45;;;;;;;4.38;3.97;;;;;;;13.80;67.42;102009.00;5097736;28;20099;-82
2022/06/17 02:33:11;;;;;;;3.92;3.60;;;;;;;13.79;66.86;101999.38;5080604;28;20119;-82
2022/06/17 02:35:41;;;;;;;3.95;3.65;;;;;;;13.79;67.91;101999.38;5080411;28;20062;-82
2022/06/17 02:38:07;;;;;;;4.20;3.60;;;;;;;13.77;68.02;102001.13;5080448;28;20064;-82
2022/06/17 02:40:36;;;;;;;4.05;3.72;;;;;;;13.74;67.77;101996.75;5080153;28;20027;-82
2022/06/17 02:43:05;;;;;;;4.00;3.70;;;;;;;13.75;67.27;101995.03;5080023;28;20024;-81
2022/06/17 02:45:32;;;;;;;4.13;3.78;;;;;;;13.73;68.93;101987.16;5080068;28;20023;-81
2022/06/17 02:47:58;;;;;;;3.35;3.15;;;;;;;13.73;68.86;101983.66;5079752;28;20028;-82
2022/06/17 02:50:26;;;;;;;4.05;3.75;;;;;;;13.71;68.73;101982.81;5079942;28;20354;-82
2022/06/17 02:52:52;;;;;;;3.67;3.35;;;;;;;13.67;68.96;101985.47;5079766;28;20035;-82
2022/06/17 02:55:34;;;;;;;3.80;3.50;;;;;;;13.63;69.68;101989.00;5080016;28;20113;-82
2022/06/17 02:58:49;;;;;;;3.97;3.67;;;;;;;13.58;70.11;101985.53;5096700;28;20028;-81
2022/06/17 03:01:18;;;;;;;3.70;3.40;;;;;;;13.55;69.71;101985.53;5079045;28;20036;-82
2022/06/17 03:03:44;;;;;;;3.83;3.53;;;;;;;13.52;69.76;101990.81;5079793;28;20382;-82
2022/06/17 03:06:18;;;;;;;3.90;3.60;;;;;;;13.48;69.20;101989.13;5079845;28;20030;-81
2022/06/17 03:08:46;;;;;;;3.40;3.20;;;;;;;13.45;69.53;101984.75;5079373;28;20030;-82
2022/06/17 03:11:12;;;;;;;3.40;3.10;;;;;;;13.40;69.51;101996.16;5079448;28;20495;-82
2022/06/17 03:14:00;;;;;;;3.58;3.08;;;;;;;13.35;70.05;101990.94;5079624;28;20019;-81
2022/06/17 03:16:26;;;;;;;3.60;3.40;;;;;;;13.33;69.94;101980.47;5079347;28;20038;-82
2022/06/17 03:18:52;;;;;;;3.60;3.40;;;;;;;13.31;69.48;101982.19;5079388;28;20024;-82
2022/06/17 03:21:21;;;;;;;4.03;3.72;;;;;;;13.30;68.51;101980.44;5079220;28;20039;-82
2022/06/17 03:23:57;;;;;;;4.00;3.70;;;;;;;13.30;68.87;101974.34;5079118;28;20019;-82
2022/06/17 03:26:26;;;;;;;4.70;4.40;;;;;;;13.31;69.12;101984.81;5095739;28;20029;-82
2022/06/17 03:28:51;;;;;;;4.10;3.83;;;;;;;13.32;69.96;101978.72;5079125;28;20549;-82
2022/06/17 03:31:24;;;;;;;3.88;3.58;;;;;;;13.34;70.00;101991.81;5079314;28;20027;-82
2022/06/17 03:33:57;;;;;;;4.50;3.47;;;;;;;13.34;69.15;101986.56;5079033;28;20028;-82
2022/06/17 03:36:34;;;;;;;3.95;3.65;;;;;;;13.37;69.32;101996.19;5079213;28;20550;-82
2022/06/17 03:39:04;;;;;;;5.75;4.00;;;;;;;13.42;67.90;101999.69;5078868;28;20031;-82
2022/06/17 03:41:56;;;;;;;5.90;3.88;;;;;;;13.44;67.94;101992.66;5095823;28;20023;-82
2022/06/17 03:44:26;;;;;;;5.15;4.35;;;;;;;13.46;68.48;101988.28;5095527;28;20071;-82
2022/06/17 03:47:20;;;;;;;4.15;3.85;;;;;;;13.50;67.41;101982.13;5094922;22;20016;-80
2022/06/17 03:50:01;;;;;;;3.72;3.42;;;;;;;13.56;66.74;101986.44;4999525;28;20050;-82
2022/06/17 03:52:37;;;;;;;5.07;4.10;;;;;;;13.58;67.31;102000.41;5000321;28;20548;-82
2022/06/17 03:55:03;;;;;;;3.78;3.47;;;;;;;13.62;67.81;101989.00;5000377;28;20036;-82
2022/06/17 03:57:31;;;;;;;4.97;3.95;;;;;;;13.64;67.67;101982.84;4999634;28;20035;-81
2022/06/17 03:59:58;;;;;;;4.45;4.07;;;;;;;13.65;67.62;101992.47;5001091;28;20033;-82
2022/06/17 04:02:29;;;;;;;4.50;4.10;;;;;;;13.68;67.83;101988.97;5000932;28;20033;-82
2022/06/17 04:04:55;;;;;;;4.45;4.15;;;;;;;13.69;67.42;101980.22;5001066;28;20041;-82
2022/06/17 04:07:20;;;;;;;4.55;4.25;;;;;;;13.70;67.50;101981.91;4999268;28;20487;-82
2022/06/17 04:09:47;;;;;;;4.78;4.10;;;;;;;13.74;68.06;101980.16;4999239;28;20037;-82
2022/06/17 04:12:13;;;;;;;4.15;3.85;;;;;;;13.76;67.67;101983.66;4999131;28;20021;-82
2022/06/17 04:14:46;;;;;;;4.03;3.72;;;;;;;13.76;67.82;101984.50;5015237;28;20025;-81
2022/06/17 04:17:34;;;;;;;4.10;3.80;;;;;;;13.80;68.70;101990.63;4999145;28;20030;-82
2022/06/17 04:20:31;;;;;;;4.80;4.38;;;;;;;13.82;67.26;101983.56;5032907;28;20398;-82
2022/06/17 04:23:01;;;;;;;4.25;3.80;;;;;;;13.83;67.97;101986.19;4982463;28;20040;-82
2022/06/17 04:25:30;;;;;;;4.00;3.70;;;;;;;13.86;68.03;101980.03;4999172;28;20022;-82
2022/06/17 04:27:56;;;;;;;5.55;4.60;;;;;;;13.86;68.31;101988.81;5015600;28;20025;-82
2022/06/17 04:30:24;;;;;;;5.47;5.03;;;;;;;13.87;68.87;101989.66;4998974;28;20120;-82
2022/06/17 04:32:55;;;;;;;4.97;4.57;;;;;;;13.87;68.52;101987.03;4999011;28;20025;-82
2022/06/17 04:35:20;;;;;;;5.07;4.30;;;;;;;13.89;68.67;101982.63;4999222;28;20055;-82
2022/06/17 04:37:46;;;;;;;4.82;4.40;;;;;;;13.91;68.82;101983.50;5015126;28;20072;-82
2022/06/17 04:40:39;;;;;;;4.72;4.43;;;;;;;13.92;69.07;101985.25;4998513;28;20033;-82
2022/06/17 04:43:13;;;;;;;4.70;4.35;;;;;;;13.96;69.63;102001.81;5015286;28;20422;-81
2022/06/17 04:45:38;;;;;;;4.65;4.30;;;;;;;13.98;69.71;101995.69;4998500;28;20086;-82
2022/06/17 04:48:04;;;;;;;4.60;4.20;;;;;;;14.02;69.57;101986.03;4998321;28;20383;-81
2022/06/17 04:50:31;;;;;;;4.13;3.83;;;;;;;14.03;70.23;101991.25;4998313;28;20104;-82
2022/06/17 04:52:57;;;;;;;6.57;4.57;;;;;;;14.08;69.66;101985.94;4998499;28;20028;-82
2022/06/17 04:55:35;;;;;;;4.85;4.35;;;;;;;14.10;69.66;101985.94;4998693;28;20562;-81
2022/06/17 04:58:01;;;;;;;4.70;4.30;;;;;;;14.12;69.13;101990.28;4998902;28;20033;-82
2022/06/17 05:00:28;;;;;;;5.78;4.53;;;;;;;14.11;68.94;101988.56;5000066;28;20056;-82
2022/06/17 05:02:54;;;;;;;4.63;4.20;;;;;;;14.14;69.09;101992.91;5000036;28;20134;-82
2022/06/17 05:05:38;;;;;;;4.47;4.07;;;;;;;14.16;68.38;101989.34;5000805;28;20445;-82
2022/06/17 05:08:06;;;;;;;5.05;3.85;;;;;;;14.19;68.58;101991.09;4999429;28;20026;-82
2022/06/17 05:10:39;;;;;;;4.93;4.40;;;;;;;14.25;67.11;101990.16;5000097;28;20024;-82
2022/06/17 05:13:11;;;;;;;3.90;3.70;;;;;;;14.24;68.58;101998.94;4999904;28;20026;-82
2022/06/17 05:15:37;;;;;;;3.88;3.42;;;;;;;14.26;67.93;101999.78;4999267;28;20507;-82
2022/06/17 05:18:03;;;;;;;4.07;3.78;;;;;;;14.28;67.79;102003.28;4998709;28;20029;-82
2022/06/17 05:20:28;;;;;;;4.80;3.75;;;;;;;14.32;67.64;102016.34;5000706;28;20025;-82
2022/06/17 05:22:56;;;;;;;3.70;3.50;;;;;;;14.35;67.16;102016.31;5016905;28;20033;-82
2022/06/17 05:25:24;;;;;;;3.35;3.10;;;;;;;14.39;67.54;102016.31;4999630;28;20060;-82
2022/06/17 05:27:49;;;;;;;3.35;3.15;;;;;;;14.46;65.98;102017.97;4999549;28;20087;-82
2022/06/17 05:30:15;;;;;;;3.20;2.90;;;;;;;14.48;66.26;102016.16;5000298;28;20029;-82
2022/06/17 05:32:44;;;;;;;3.15;2.80;;;;;;;14.48;65.95;102016.16;5000622;28;20026;-82
2022/06/17 05:35:09;;;;;;;3.47;2.88;;;;;;;14.52;66.39;102012.66;4998982;28;20124;-82
2022/06/17 05:37:35;;;;;;;3.30;2.80;;;;;;;14.54;65.44;102016.13;4998731;28;20144;-82
2022/06/17 05:40:01;;;;;;;3.08;2.75;;;;;;;14.56;65.21;102014.34;4998514;28;20124;-82
2022/06/17 05:42:27;;;;;;;2.85;2.65;;;;;;;14.57;65.63;102013.44;4998230;28;20025;-82
2022/06/17 05:44:52;;;;;;;2.80;2.60;;;;;;;14.60;65.87;102018.69;4997985;28;20393;-82
2022/06/17 05:47:18;;;;;;;2.92;2.65;;;;;;;14.64;65.73;102011.66;4998112;28;20029;-82
2022/06/17 05:49:43;;;;;;;3.25;2.90;;;;;;;14.67;64.96;102012.50;5001649;28;20485;-82
2022/06/17 05:52:10;;;;;;;2.95;2.65;;;;;;;14.69;65.18;102008.06;5001693;28;20017;-81
2022/06/17 05:54:36;;;;;;;2.65;2.50;;;;;;;14.72;64.82;102011.56;5003708;28;20025;-81
2022/06/17 05:57:01;;;;;;;3.38;2.63;;;;;;;14.77;65.08;102015.00;5001550;28;20039;-81
2022/06/17 05:59:27;;;;;;;5.82;3.30;;;;;;;14.80;64.93;102012.31;5001470;28;20055;-81
2022/06/17 06:01:52;;;;;;;4.38;3.42;;;;;;;14.86;62.82;102007.88;5001472;28;20025;-81
2022/06/17 06:04:18;;;;;;;3.17;2.90;;;;;;;14.89;63.36;102001.69;5001748;28;20044;-82
2022/06/17 06:06:43;;;;;;;3.25;2.95;;;;;;;14.91;64.44;102007.78;5001439;28;20502;-82
2022/06/17 06:09:09;;;;;;;3.83;2.97;;;;;;;14.94;63.43;102005.09;5001003;28;20032;-82
2022/06/17 06:11:34;;;;;;;3.30;3.00;;;;;;;14.97;64.04;102005.09;5001321;28;20017;-82
2022/06/17 06:14:00;;;;;;;5.70;3.88;;;;;;;14.99;62.77;102011.19;5003275;28;20025;-82
2022/06/17 06:16:25;;;;;;;3.25;3.05;;;;;;;15.01;62.57;102017.31;5005307;28;20040;-83
2022/06/17 06:18:51;;;;;;;4.20;3.28;;;;;;;15.08;62.26;102006.69;5004978;28;20106;-82
2022/06/17 06:21:17;;;;;;;3.45;3.15;;;;;;;15.10;63.48;102018.06;5005106;28;20024;-82
2022/06/17 06:23:42;;;;;;;5.50;3.22;;;;;;;15.13;62.64;102018.88;5005676;28;20552;-82
2022/06/17 06:26:12;;;;;;;4.93;3.53;;;;;;;15.16;63.03;102020.59;5004898;28;20033;-82
2022/06/17 06:28:37;;;;;;;3.97;3.45;;;;;;;15.19;63.23;102020.56;5004575;28;20037;-82
2022/06/17 06:31:26;;;;;;;6.30;3.45;;;;;;;15.26;62.42;102031.88;5002268;28;20013;-83
2022/06/17 06:33:51;;;;;;;3.95;3.30;;;;;;;15.26;61.30;102027.47;5007466;28;20428;-82
2022/06/17 06:36:17;;;;;;;3.65;3.35;;;;;;;15.31;61.61;102030.94;5000849;28;20026;-82
2022/06/17 06:38:42;;;;;;;4.05;3.28;;;;;;;15.38;61.26;102032.56;5000637;28;20550;-82
2022/06/17 06:41:08;;;;;;;4.03;3.20;;;;;;;15.39;61.25;102043.97;5000748;28;20029;-82
2022/06/17 06:43:34;;;;;;;7.88;3.13;;;;;;;15.45;60.18;102043.03;5001138;28;20082;-81
2022/06/17 06:46:08;;;;;;;5.47;3.22;;;;;;;15.47;60.72;102036.81;5000771;28;20028;-81
2022/06/17 06:48:34;;;;;;;3.85;3.35;;;;;;;15.51;61.16;102035.00;5001782;28;20025;-82
2022/06/17 06:50:59;;;;;;;7.18;3.40;;;;;;;15.55;60.76;102029.66;5001651;28;20029;-82
2022/06/17 06:53:25;;;;;;;4.13;3.72;;;;;;;15.59;60.63;102033.13;5017259;28;20027;-82
2022/06/17 06:55:50;;;;;;;4.13;3.10;;;;;;;15.62;59.45;102032.22;5018702;28;20021;-82
2022/06/17 06:58:18;;;;;;;4.85;3.42;;;;;;;15.65;58.19;102029.50;5000399;28;20079;-82
2022/06/17 07:00:46;;;;;;;4.20;2.70;;;;;;;15.68;59.09;102035.63;5000609;28;20049;-82
2022/06/17 07:03:12;;;;;;;4.00;3.10;;;;;;;15.71;58.86;102037.34;5000916;28;20116;-82
2022/06/17 07:05:41;;;;;;;3.55;3.35;;;;;;;15.76;58.71;102018.81;5000431;28;20029;-82
2022/06/17 07:08:09;;;;;;;3.72;3.25;;;;;;;15.78;59.25;102020.53;5001405;28;20513;-81
2022/06/17 07:10:36;;;;;;;3.20;2.92;;;;;;;15.83;59.85;102012.59;5017105;28;20021;-82
2022/06/17 07:13:02;;;;;;;3.72;3.40;;;;;;;15.90;59.45;102019.47;5001688;28;20032;-82
2022/06/17 07:15:28;;;;;;;3.38;3.10;;;;;;;15.93;58.08;102014.16;5001051;28;20029;-82
2022/06/17 07:18:29;;;;;;;4.20;2.75;;;;;;;15.96;57.66;102011.44;5000697;28;20112;-82
2022/06/17 07:21:00;;;;;;;4.18;3.05;;;;;;;16.01;59.24;102012.25;4959601;28;20116;-82
2022/06/17 07:23:33;;;;;;;3.63;3.30;;;;;;;16.03;59.28;102015.75;5001421;28;20407;-82
2022/06/17 07:26:02;;;;;;;2.92;2.60;;;;;;;16.05;58.16;102006.03;5003177;28;20022;-82
2022/06/17 07:28:28;;;;;;;7.35;2.75;;;;;;;16.08;58.88;102001.59;5004066;28;20036;-83
2022/06/17 07:30:55;;;;;;;3.15;2.95;;;;;;;16.12;57.92;101998.00;5019814;28;20540;-82
2022/06/17 07:33:22;;;;;;;3.95;3.10;;;;;;;16.18;57.34;101992.63;5003919;28;20483;-83
2022/06/17 07:35:53;;;;;;;3.20;3.00;;;;;;;16.23;58.27;101996.91;5003305;28;20051;-83
2022/06/17 07:41:07;;;;;;;4.05;3.00;;;;;;;16.36;57.16;101986.09;5023211;28;20075;-82
2022/06/17 07:43:33;;;;;;;3.33;2.80;;;;;;;16.39;56.78;101980.78;5002562;28;20065;-83
2022/06/17 07:46:00;;;;;;;3.65;2.70;;;;;;;16.44;56.95;101992.09;5002586;28;20028;-82
2022/06/17 07:48:26;;;;;;;4.32;3.03;;;;;;;16.47;57.52;101988.53;5002964;28;20053;-82
2022/06/17 07:50:52;;;;;;;3.08;2.50;;;;;;;16.53;57.83;101989.28;5003301;28;20093;-83
2022/06/17 07:53:18;;;;;;;3.78;2.88;;;;;;;16.59;57.28;101990.91;5004329;28;20079;-83
2022/06/17 07:55:44;;;;;;;3.90;2.88;;;;;;;16.63;57.82;101989.94;5003248;28;20021;-83
2022/06/17 07:58:12;;;;;;;3.25;2.97;;;;;;;16.68;57.71;101998.63;5001678;28;20049;-83
2022/06/17 08:00:41;;;;;;;4.63;3.00;;;;;;;16.74;57.00;101981.81;5001636;28;20022;-83
2022/06/17 08:03:07;;;;;;;2.80;2.60;;;;;;;16.80;56.99;101986.97;4999932;28;20033;-82
2022/06/17 08:05:33;;;;;;;3.10;2.90;;;;;;;16.84;57.26;101986.00;5000883;28;20083;-83
2022/06/17 08:08:03;;;;;;;2.90;2.70;;;;;;;16.88;57.01;101982.38;5002466;28;20027;-83
2022/06/17 08:10:30;;;;;;;2.22;2.03;;;;;;;16.95;56.19;101985.78;5000696;28;20017;-83
2022/06/17 08:12:56;;;;;;;3.53;2.38;;;;;;;16.99;56.37;101987.47;5000948;28;20025;-83
2022/06/17 08:15:22;;;;;;;2.40;2.20;;;;;;;17.03;56.67;101983.84;5000803;28;20125;-82
2022/06/17 08:17:48;;;;;;;2.97;2.53;;;;;;;17.10;58.06;101989.84;5000337;28;20022;-82
2022/06/17 08:20:36;;;;;;;4.07;2.72;;;;;;;17.17;56.55;101982.66;5000596;28;20029;-82
2022/06/17 08:23:04;;;;;;;2.53;2.33;;;;;;;17.29;56.45;101974.44;4989547;28;20091;-82
2022/06/17 08:25:30;;;;;;;2.95;2.50;;;;;;;17.42;56.34;101968.88;4999786;28;20049;-82
2022/06/17 08:27:57;;;;;;;2.70;2.50;;;;;;;17.53;55.51;101961.53;4999432;28;20017;-83
2022/06/17 08:30:27;;;;;;;2.90;2.45;;;;;;;17.65;55.29;101963.00;4999689;28;20083;-82
2022/06/17 08:32:56;;;;;;;2.88;2.65;;;;;;;17.82;54.81;101967.84;5000036;28;20550;-82
2022/06/17 08:35:33;;;;;;;3.42;3.08;;;;;;;17.98;55.14;101955.97;4999966;28;20546;-82
2022/06/17 08:38:04;;;;;;;2.97;2.58;;;;;;;18.20;54.12;101950.97;4999627;28;20044;-82
2022/06/17 08:40:36;;;;;;;2.65;2.35;;;;;;;18.30;53.06;101950.72;4999374;28;20025;-82
2022/06/17 08:43:04;;;;;;;3.92;2.30;;;;;;;18.39;53.09;101956.59;5015810;28;20487;-82
2022/06/17 08:45:57;;;;;;;2.30;2.10;;;;;;;18.49;52.69;101959.00;5016330;28;20029;-82
2022/06/17 08:48:50;;;;;;;2.13;1.90;;;;;;;18.60;52.66;101951.59;5015034;28;20033;-81
2022/06/17 08:51:32;;;;;;;3.08;1.67;;;;;;;18.66;53.12;101946.09;5016131;28;20029;-82
2022/06/17 08:54:06;;;;;;;2.35;2.17;;;;;;;18.75;52.25;101959.06;4999466;28;20028;-82
2022/06/17 08:56:52;;;;;;;;;;;;;;;18.82;52.14;101956.25;5016037;28;20037;-82
2022/06/17 08:59:32;;;;;;;5.50;2.50;;;;;;;18.83;53.20;101963.25;5004936;28;19909;-82
2022/06/17 09:02:22;;;;;;;3.35;3.03;;;;;;;18.85;52.03;101957.00;4999627;28;20487;-82
2022/06/17 09:04:58;;;;;;;2.63;2.33;;;;;;;18.90;51.69;101962.19;5015657;28;20414;-82
2022/06/17 09:08:10;;;;;;;3.42;2.40;;;;;;;18.92;51.81;101963.88;5015669;28;20411;-82
2022/06/17 09:10:50;;;;;;;4.50;2.22;;;;;;;18.97;52.99;101971.66;4945339;28;20172;-82
2022/06/17 09:13:45;;;;;;;2.72;2.53;;;;;;;18.96;51.37;101964.63;5015594;28;20025;-82
2022/06/17 09:16:31;;;;;;;2.95;2.65;;;;;;;18.99;51.98;101953.97;4999062;28;20045;-82
2022/06/17 09:19:00;;;;;;;3.50;2.78;;;;;;;19.04;52.90;101957.31;5015517;28;20025;-83
2022/06/17 09:21:31;;;;;;;2.50;2.30;;;;;;;19.13;53.37;101960.56;4998888;28;20080;-82
2022/06/17 09:24:06;;;;;;;4.53;2.85;;;;;;;19.16;53.24;101952.56;5002811;28;20022;-82
2022/06/17 09:26:35;;;;;;;4.50;2.50;;;;;;;19.19;53.59;101945.34;5002073;28;20021;-82
2022/06/17 09:29:07;;;;;;;2.83;2.60;;;;;;;19.24;53.99;101945.22;5002676;28;20037;-82
2022/06/17 09:31:45;;;;;;;4.38;2.90;;;;;;;19.28;53.63;101954.81;5019517;28;20025;-82
2022/06/17 09:34:20;;;;;;;5.35;3.00;;;;;;;19.36;52.90;101950.13;5002702;28;20029;-82
2022/06/17 09:36:57;;;;;;;3.67;2.90;;;;;;;19.45;52.35;101963.97;5003358;28;20029;-82
2022/06/17 09:39:31;;;;;;;5.57;4.00;;;;;;;19.49;51.07;101957.66;5018732;28;20483;-83
2022/06/17 09:42:04;;;;;;;3.88;3.58;;;;;;;19.56;50.82;101953.88;5002554;28;20049;-82
2022/06/17 09:44:34;;;;;;;3.78;3.47;;;;;;;19.60;51.90;101947.53;5002251;28;20064;-82
2022/06/17 09:47:18;;;;;;;3.75;3.13;;;;;;;19.67;51.85;101949.06;5002587;28;20022;-82
2022/06/17 09:49:50;;;;;;;3.55;3.25;;;;;;;19.73;51.55;101945.34;5077592;23;20067;-82
2022/06/17 09:52:23;;;;;;;4.18;3.38;;;;;;;19.82;51.15;101954.78;5082151;28;20081;-82
2022/06/17 09:54:57;;;;;;;6.63;3.40;;;;;;;19.83;50.68;101964.47;5081811;28;20030;-82
2022/06/17 09:57:26;;;;;;;4.18;3.40;;;;;;;19.83;50.39;101961.84;5098820;28;20473;-82
2022/06/17 09:59:57;;;;;;;2.88;2.63;;;;;;;19.87;51.03;101958.16;5081808;28;20595;-82
2022/06/17 10:02:47;;;;;;;3.47;3.17;;;;;;;19.87;49.26;101947.53;5098758;28;20030;-82
2022/06/17 10:05:20;;;;;;;3.30;3.00;;;;;;;19.88;50.07;101949.28;5081947;28;20400;-82
2022/06/17 10:07:55;;;;;;;3.30;3.00;;;;;;;19.88;49.28;101957.25;5098794;28;20118;-82
2022/06/17 10:10:29;;;;;;;3.58;3.28;;;;;;;19.89;49.59;101953.66;5081413;28;20023;-82
2022/06/17 10:13:01;;;;;;;;;;;;;;;19.93;49.66;101947.31;5098993;28;20511;-82
2022/06/17 10:15:34;;;;;;;3.17;2.97;;;;;;;20.01;49.76;101950.56;5099205;28;20002;-82
2022/06/17 10:18:32;;;;;;;2.88;2.67;;;;;;;20.12;48.93;101951.97;5098527;28;20045;-82
2022/06/17 10:21:25;;;;;;;3.10;2.83;;;;;;;20.22;49.09;101953.34;5082704;28;20027;-81
2022/06/17 10:24:33;;;;;;;4.53;3.40;;;;;;;20.29;47.79;101965.47;5098340;28;20034;-83
2022/06/17 10:27:07;;;;;;;3.08;2.78;;;;;;;20.34;47.68;101955.56;5081492;28;20024;-82
2022/06/17 10:29:58;;;;;;;4.60;3.00;;;;;;;20.34;47.58;101955.56;5116382;28;20035;-82
2022/06/17 10:32:25;;;;;;;2.88;2.67;;;;;;;20.37;49.69;101952.78;5081188;28;20546;-82
2022/06/17 10:34:58;;;;;;;3.00;2.67;;;;;;;20.44;49.41;101953.44;5080814;28;20584;-82
2022/06/17 10:37:26;;;;;;;2.83;2.47;;;;;;;20.53;49.41;101942.47;5081513;28;20059;-82
2022/06/17 10:39:51;;;;;;;2.72;2.53;;;;;;;20.66;50.58;101937.53;5080797;28;20489;-82
2022/06/17 10:42:20;;;;;;;2.72;2.53;;;;;;;20.77;48.03;101943.31;5081402;28;20073;-83
2022/06/17 10:44:48;;;;;;;2.45;2.25;;;;;;;20.86;48.41;101938.56;5081170;28;20464;-82
2022/06/17 10:47:36;;;;;;;2.47;2.28;;;;;;;20.93;45.70;101934.75;5081797;28;20024;-82
2022/06/17 10:50:11;;;;;;;3.35;2.55;;;;;;;20.93;46.10;101929.44;5097522;28;20085;-82
2022/06/17 10:52:40;;;;;;;2.10;1.90;;;;;;;20.98;46.51;101930.09;5080675;28;20031;-81
2022/06/17 10:55:14;;;;;;;2.95;2.45;;;;;;;21.03;46.84;101930.78;5097611;28;20028;-82
2022/06/17 10:58:05;;;;;;;5.20;2.47;;;;;;;21.02;45.15;101929.03;5080257;28;20496;-82
2022/06/17 11:00:32;;;;;;;2.72;1.98;;;;;;;21.07;46.18;101932.38;5096658;28;20119;-82
2022/06/17 11:03:15;;;;;;;3.40;3.03;;;;;;;21.16;47.12;101935.59;5080443;28;20118;-82
2022/06/17 11:05:41;;;;;;;2.47;2.33;;;;;;;21.17;45.06;101934.66;5080398;28;20024;-82
2022/06/17 11:08:19;;;;;;;2.67;2.47;;;;;;;21.21;45.97;101918.53;5080353;28;20029;-82
2022/06/17 11:10:51;;;;;;;2.28;2.17;;;;;;;21.25;45.37;101919.28;5080796;28;20033;-83
2022/06/17 11:13:16;;;;;;;4.40;2.60;;;;;;;21.25;45.33;101924.59;5080091;28;20030;-82
2022/06/17 11:15:48;;;;;;;2.80;2.60;;;;;;;21.23;45.29;101910.53;5080819;28;20023;-82
2022/06/17 11:18:17;;;;;;;2.88;2.65;;;;;;;21.21;45.66;101912.34;5080073;28;20058;-82
2022/06/17 11:20:56;;;;;;;4.50;2.40;;;;;;;21.19;45.27;101908.91;5079745;28;20488;-82
2022/06/17 11:23:44;;;;;;;2.80;2.60;;;;;;;21.19;45.78;101909.78;5080209;28;20035;-82
2022/06/17 11:26:20;;;;;;;2.90;2.33;;;;;;;21.20;47.26;101906.19;5079447;28;20373;-82
2022/06/17 11:28:49;;;;;;;3.40;2.33;;;;;;;21.22;47.54;101908.78;5079476;28;20027;-82
2022/06/17 11:31:30;;;;;;;2.80;2.60;;;;;;;21.26;46.87;101910.38;5079810;28;20024;-82
2022/06/17 11:34:11;;;;;;;3.72;2.30;;;;;;;21.32;47.25;101910.09;5072707;28;20396;-82
2022/06/17 11:36:59;;;;;;;2.47;2.20;;;;;;;21.38;45.87;101909.84;5059893;28;20024;-83
2022/06/17 11:39:34;;;;;;;4.85;2.50;;;;;;;21.40;45.05;101915.09;5065888;28;20388;-81
2022/06/17 11:42:02;;;;;;;2.40;2.20;;;;;;;21.43;44.95;101913.19;5073772;28;20020;-82
2022/06/17 11:44:28;;;;;;;4.85;2.47;;;;;;;21.47;46.60;101913.06;5078589;28;20030;-82
2022/06/17 11:46:59;;;;;;;2.28;2.08;;;;;;;21.48;46.59;101920.09;5071347;28;20023;-82
2022/06/17 11:49:25;;;;;;;2.63;2.33;;;;;;;21.50;46.09;101913.78;5070331;28;20465;-82
2022/06/17 11:52:00;;;;;;;2.10;2.00;;;;;;;21.53;46.71;101918.13;5065129;28;20019;-82
2022/06/17 11:54:33;;;;;;;4.15;2.38;;;;;;;21.52;45.78;101911.06;5095063;28;20106;-82